createdAt,value
2023-05-01T00:01:24.810Z,100153.69
2023-05-01T00:03:58.032Z,100161.81
2023-05-01T00:06:29.198Z,100161.69
2023-05-01T00:09:00.184Z,100165.69
2023-05-01T00:11:30.627Z,100165.19
2023-05-01T00:14:00.973Z,100161.09
2023-05-01T00:16:34.704Z,100167.91
2023-05-01T00:19:08.485Z,100160.97
2023-05-01T00:21:38.745Z,100165.75
2023-05-01T00:24:10.789Z,100173.91
2023-05-01T00:26:41.010Z,100171.00
2023-05-01T00:29:11.731Z,100170.66
2023-05-01T00:31:42.641Z,100158.69
2023-05-01T00:34:15.842Z,100166.69
2023-05-01T00:36:48.091Z,100170.91
2023-05-01T00:39:19.910Z,100163.13
2023-05-01T00:41:50.255Z,100161.91
2023-05-01T00:44:20.633Z,100164.69
2023-05-01T00:46:51.049Z,100162.50
2023-05-01T00:49:23.940Z,100164.28
2023-05-01T00:51:56.349Z,100164.38
2023-05-01T00:54:27.968Z,100162.69
2023-05-01T00:56:58.638Z,100157.66
2023-05-01T00:59:29.364Z,100171.66
2023-05-01T01:02:00.565Z,100174.28
2023-05-01T01:04:35.909Z,100168.50
2023-05-01T01:07:12.438Z,100174.50
2023-05-01T01:09:56.073Z,100177.47
2023-05-01T01:12:35.177Z,100178.75
2023-05-01T01:15:16.349Z,100177.19
2023-05-01T01:17:55.247Z,100176.88
2023-05-01T01:20:40.075Z,100177.81
2023-05-01T01:23:37.970Z,100186.13
2023-05-01T01:26:16.220Z,100181.31
2023-05-01T01:29:17.360Z,100176.59
2023-05-01T01:32:00.869Z,100184.59
2023-05-01T01:34:37.441Z,100186.69
2023-05-01T01:37:14.458Z,100187.72
2023-05-01T01:39:51.733Z,100188.56
2023-05-01T01:42:27.121Z,100189.72
2023-05-01T01:44:59.567Z,100193.41
2023-05-01T01:47:34.537Z,100194.13
2023-05-01T01:50:10.678Z,100190.47
2023-05-01T01:52:43.618Z,100195.81
2023-05-01T01:55:16.374Z,100192.69
2023-05-01T01:57:48.924Z,100196.97
2023-05-01T02:00:20.933Z,100194.69
2023-05-01T02:02:54.115Z,100187.41
2023-05-01T02:05:29.665Z,100181.09
2023-05-01T02:08:02.187Z,100184.03
2023-05-01T02:10:33.741Z,100181.63
2023-05-01T02:13:06.240Z,100179.84
2023-05-01T02:15:38.846Z,100171.34
2023-05-01T02:18:10.930Z,100165.34
2023-05-01T02:20:45.806Z,100177.13
2023-05-01T02:23:18.879Z,100172.50
2023-05-01T02:25:51.272Z,100176.06
2023-05-01T02:28:26.246Z,100178.91
2023-05-01T02:30:57.542Z,100139.72
2023-05-01T02:33:28.519Z,100173.53
2023-05-01T02:36:01.450Z,100178.88
2023-05-01T02:38:32.934Z,100182.75
2023-05-01T02:41:05.384Z,100189.22
2023-05-01T02:43:37.561Z,100177.94
2023-05-01T02:46:10.713Z,100187.72
2023-05-01T02:48:43.323Z,100188.00
2023-05-01T02:51:17.053Z,100184.72
2023-05-01T02:53:47.584Z,100183.25
2023-05-01T02:56:18.329Z,100177.13
2023-05-01T02:58:48.729Z,100189.34
2023-05-01T03:01:19.136Z,100181.44
2023-05-01T03:03:49.715Z,100183.25
2023-05-01T03:06:22.704Z,100187.44
2023-05-01T03:08:56.298Z,100190.91
2023-05-01T03:11:27.236Z,100193.34
2023-05-01T03:13:57.749Z,100187.16
2023-05-01T03:16:28.146Z,100191.56
2023-05-01T03:18:59.236Z,100195.88
2023-05-01T03:21:33.092Z,100197.66
2023-05-01T03:24:03.777Z,100194.09
2023-05-01T03:26:34.022Z,100201.97
2023-05-01T03:29:04.303Z,100205.28
2023-05-01T03:31:34.643Z,100203.69
2023-05-01T03:34:05.192Z,100186.72
2023-05-01T03:36:38.044Z,100203.19
2023-05-01T03:39:08.877Z,100202.34
2023-05-01T03:41:39.674Z,100206.56
2023-05-01T03:44:10.252Z,100196.03
2023-05-01T03:46:40.847Z,100195.00
2023-05-01T03:49:11.294Z,100193.84
2023-05-01T03:51:44.859Z,100197.22
2023-05-01T03:54:15.283Z,100201.09
2023-05-01T03:56:45.880Z,100205.84
2023-05-01T03:59:16.081Z,100198.16
2023-05-01T04:01:46.443Z,100196.75
2023-05-01T04:04:16.921Z,100202.03
2023-05-01T04:06:53.369Z,100201.06
2023-05-01T04:09:23.710Z,100201.66
2023-05-01T04:11:53.974Z,100192.22
2023-05-01T04:14:24.320Z,100206.56
2023-05-01T04:16:57.057Z,100196.25
2023-05-01T04:19:28.140Z,100195.63
2023-05-01T04:22:01.753Z,100197.16
2023-05-01T04:24:32.032Z,100201.00
2023-05-01T04:27:02.337Z,100208.13
2023-05-01T04:29:32.659Z,100207.41
2023-05-01T04:32:03.029Z,100204.16
2023-05-01T04:34:33.406Z,100210.06
2023-05-01T04:37:08.076Z,100205.59
2023-05-01T04:39:38.676Z,100211.44
2023-05-01T04:42:09.349Z,100207.47
2023-05-01T04:44:40.710Z,100219.06
2023-05-01T04:47:11.334Z,100218.75
2023-05-01T04:49:41.799Z,100216.28
2023-05-01T04:52:15.142Z,100217.31
2023-05-01T04:54:48.227Z,100217.81
2023-05-01T04:57:18.606Z,100212.88
2023-05-01T04:59:51.952Z,100220.38
2023-05-01T05:02:22.342Z,100217.56
2023-05-01T05:04:54.756Z,100222.56
2023-05-01T05:07:27.664Z,100218.97
2023-05-01T05:09:58.750Z,100219.91
2023-05-01T05:12:29.305Z,100228.22
2023-05-01T05:15:02.457Z,100228.13
2023-05-01T05:17:32.902Z,100221.69
2023-05-01T05:20:03.596Z,100228.97
2023-05-01T05:22:39.192Z,100235.88
2023-05-01T05:25:10.166Z,100231.78
2023-05-01T05:27:40.841Z,100230.88
2023-05-01T05:30:12.757Z,100237.09
2023-05-01T05:32:43.077Z,100245.06
2023-05-01T05:35:13.412Z,100238.34
2023-05-01T05:37:46.398Z,100240.09
2023-05-01T05:40:17.043Z,100242.94
2023-05-01T05:42:48.753Z,100245.28
2023-05-01T05:45:19.202Z,100242.28
2023-05-01T05:47:49.422Z,100245.50
2023-05-01T05:50:19.955Z,100247.16
2023-05-01T05:52:52.802Z,100241.13
2023-05-01T05:55:23.075Z,100248.16
2023-05-01T05:57:53.526Z,100238.69
2023-05-01T06:00:24.224Z,100242.53
2023-05-01T06:02:57.960Z,100248.88
2023-05-01T06:05:28.294Z,100242.44
2023-05-01T06:08:01.619Z,100244.94
2023-05-01T06:10:32.265Z,100240.81
2023-05-01T06:13:10.829Z,100238.91
2023-05-01T06:15:45.183Z,100246.13
2023-05-01T06:18:16.949Z,100246.69
2023-05-01T06:20:48.057Z,100241.63
2023-05-01T06:23:21.596Z,100245.81
2023-05-01T06:25:51.966Z,100251.16
2023-05-01T06:28:22.165Z,100239.31
2023-05-01T06:30:52.614Z,100241.75
2023-05-01T06:33:23.508Z,100243.75
2023-05-01T06:35:54.842Z,100236.06
2023-05-01T06:38:29.883Z,100256.69
2023-05-01T06:41:00.326Z,100239.81
2023-05-01T06:43:31.363Z,100258.81
2023-05-01T06:46:01.795Z,100256.31
2023-05-01T06:48:32.264Z,100251.25
2023-05-01T06:51:05.524Z,100245.75
2023-05-01T06:53:38.686Z,100249.13
2023-05-01T06:56:09.593Z,100248.72
2023-05-01T06:58:45.071Z,100252.09
2023-05-01T07:01:15.518Z,100250.34
2023-05-01T07:03:46.797Z,100249.25
2023-05-01T07:06:19.129Z,100243.75
2023-05-01T07:08:52.271Z,100245.50
2023-05-01T07:11:23.342Z,100251.84
2023-05-01T07:13:53.751Z,100245.06
2023-05-01T07:16:26.962Z,100249.47
2023-05-01T07:18:57.633Z,100249.50
2023-05-01T07:21:28.247Z,100242.78
2023-05-01T07:24:01.328Z,100255.19
2023-05-01T07:26:31.793Z,100246.50
2023-05-01T07:29:02.106Z,100259.97
2023-05-01T07:31:32.887Z,100250.59
2023-05-01T07:34:04.015Z,100248.25
2023-05-01T07:36:34.676Z,100247.25
2023-05-01T07:39:08.349Z,100245.28
2023-05-01T07:41:38.706Z,100246.78
2023-05-01T07:44:09.278Z,100252.56
2023-05-01T07:46:39.615Z,100247.44
2023-05-01T07:49:10.148Z,100256.56
2023-05-01T07:51:41.743Z,100258.63
2023-05-01T07:54:16.644Z,100254.97
2023-05-01T07:56:48.578Z,100247.16
2023-05-01T07:59:20.055Z,100250.16
2023-05-01T08:01:51.973Z,100251.22
2023-05-01T08:04:23.126Z,100245.31
2023-05-01T08:06:54.057Z,100222.63
2023-05-01T08:09:27.038Z,100236.47
2023-05-01T08:11:57.369Z,100231.34
2023-05-01T08:14:27.862Z,100226.44
2023-05-01T08:16:58.452Z,100227.16
2023-05-01T08:19:28.844Z,100228.69
2023-05-01T08:21:59.159Z,100221.94
2023-05-01T08:24:32.423Z,100220.13
2023-05-01T08:27:02.855Z,100225.78
2023-05-01T08:29:33.166Z,100230.78
2023-05-01T08:32:03.555Z,100232.41
2023-05-01T08:34:33.819Z,100220.78
2023-05-01T08:37:04.102Z,100222.47
2023-05-01T08:39:37.114Z,100225.50
2023-05-01T08:42:07.806Z,100220.25
2023-05-01T08:44:41.795Z,100222.13
2023-05-01T08:47:15.655Z,100221.72
2023-05-01T08:49:46.905Z,100214.16
2023-05-01T08:52:18.914Z,100217.72
2023-05-01T08:54:57.773Z,100204.34
2023-05-01T08:57:29.319Z,100213.75
2023-05-01T09:00:01.977Z,100207.75
2023-05-01T09:02:33.392Z,100205.00
2023-05-01T09:05:05.230Z,100204.50
2023-05-01T09:07:35.727Z,100174.69
2023-05-01T09:10:09.819Z,100201.28
2023-05-01T09:12:41.977Z,100197.28
2023-05-01T09:15:13.188Z,100199.59
2023-05-01T09:17:44.275Z,100193.06
2023-05-01T09:20:15.127Z,100197.03
2023-05-01T09:22:45.786Z,100187.19
2023-05-01T09:25:19.613Z,100181.84
2023-05-01T09:27:49.634Z,100192.63
2023-05-01T09:30:35.648Z,100180.13
2023-05-01T09:33:11.036Z,100174.84
2023-05-01T09:35:58.883Z,100179.63
2023-05-01T09:38:30.419Z,100177.19
2023-05-01T09:41:07.702Z,100182.66
2023-05-01T09:43:38.306Z,100172.31
2023-05-01T09:46:11.304Z,100178.63
2023-05-01T09:48:42.001Z,100170.88
2023-05-01T09:51:28.256Z,100163.63
2023-05-01T09:54:00.655Z,100172.41
2023-05-01T09:56:34.922Z,100169.06
2023-05-01T09:59:19.176Z,100173.69
2023-05-01T10:01:52.519Z,100169.75
2023-05-01T10:04:32.836Z,100153.72
2023-05-01T10:07:15.174Z,100160.41
2023-05-01T10:09:50.951Z,100153.53
2023-05-01T10:12:30.680Z,100153.38
2023-05-01T10:15:07.903Z,100152.91
2023-05-01T10:17:45.943Z,100155.69
2023-05-01T10:20:16.635Z,100165.97
2023-05-01T10:22:47.459Z,100157.50
2023-05-01T10:25:19.028Z,100150.22
2023-05-01T10:27:53.561Z,100161.03
2023-05-01T10:30:25.334Z,100165.81
2023-05-01T10:32:56.157Z,100164.13
2023-05-01T10:35:30.891Z,100162.47
2023-05-01T10:38:04.667Z,100153.56
2023-05-01T10:40:51.864Z,100156.25
2023-05-01T10:43:30.775Z,100149.56
2023-05-01T10:46:31.509Z,100153.75
2023-05-01T10:49:02.206Z,100153.31
2023-05-01T10:51:32.585Z,100152.34
2023-05-01T10:54:28.189Z,100150.41
2023-05-01T10:57:01.458Z,100151.88
2023-05-01T10:59:54.343Z,100160.16
2023-05-01T11:02:26.911Z,100145.69
2023-05-01T11:04:57.706Z,100145.88
2023-05-01T11:07:28.536Z,100141.94
2023-05-01T11:10:02.100Z,100146.69
2023-05-01T11:12:52.029Z,100142.66
2023-05-01T11:15:35.662Z,100137.31
2023-05-01T11:18:09.061Z,100129.66
2023-05-01T11:20:52.354Z,100130.09
2023-05-01T11:23:25.982Z,100129.88
2023-05-01T11:26:08.362Z,100128.22
2023-05-01T11:28:41.436Z,100121.41
2023-05-01T11:31:20.921Z,100123.66
2023-05-01T11:33:51.282Z,100125.13
2023-05-01T11:36:22.693Z,100118.06
2023-05-01T11:38:53.988Z,100121.31
2023-05-01T11:41:24.647Z,100115.69
2023-05-01T11:43:56.541Z,100126.50
2023-05-01T11:46:31.448Z,100114.28
2023-05-01T11:49:04.063Z,100113.38
2023-05-01T11:51:35.058Z,100103.97
2023-05-01T11:54:07.264Z,100114.81
2023-05-01T11:56:41.241Z,100106.72
2023-05-01T11:59:16.719Z,100120.81
2023-05-01T12:01:51.272Z,100114.31
2023-05-01T12:04:32.015Z,100097.69
2023-05-01T12:07:02.875Z,100108.03
2023-05-01T12:09:34.129Z,100105.78
2023-05-01T12:12:07.558Z,100101.06
2023-05-01T12:14:38.171Z,100100.06
2023-05-01T12:17:14.973Z,100100.59
2023-05-01T12:19:54.616Z,100096.84
2023-05-01T12:22:25.200Z,100088.19
2023-05-01T12:24:56.516Z,100085.06
2023-05-01T12:27:27.133Z,100080.59
2023-05-01T12:29:58.414Z,100084.94
2023-05-01T12:32:35.904Z,100082.94
2023-05-01T12:35:16.523Z,100080.47
2023-05-01T12:37:47.175Z,100071.72
2023-05-01T12:40:19.201Z,100072.06
2023-05-01T12:42:57.900Z,100066.09
2023-05-01T12:45:30.941Z,100069.81
2023-05-01T12:48:04.195Z,100067.00
2023-05-01T12:50:40.175Z,100061.13
2023-05-01T12:53:11.132Z,100061.34
2023-05-01T12:55:49.514Z,100059.94
2023-05-01T12:58:20.831Z,100064.50
2023-05-01T13:00:53.141Z,100063.06
2023-05-01T13:03:29.529Z,100060.16
2023-05-01T13:06:01.530Z,100051.75
2023-05-01T13:08:34.466Z,100042.03
2023-05-01T13:11:13.358Z,100036.84
2023-05-01T13:13:45.783Z,100041.19
2023-05-01T13:16:17.153Z,100042.03
2023-05-01T13:18:52.477Z,100043.81
2023-05-01T13:21:24.639Z,100039.38
2023-05-01T13:23:58.423Z,100049.13
2023-05-01T13:26:31.707Z,100039.75
2023-05-01T13:29:03.437Z,100040.72
2023-05-01T13:31:34.106Z,100037.03
2023-05-01T13:34:08.281Z,100035.34
2023-05-01T13:36:41.203Z,100027.72
2023-05-01T13:39:12.040Z,100042.63
2023-05-01T13:41:45.656Z,100030.41
2023-05-01T13:44:15.798Z,100028.00
2023-05-01T13:46:46.733Z,100030.50
2023-05-01T13:49:23.656Z,100031.94
2023-05-01T13:52:01.074Z,100035.50
2023-05-01T13:54:31.304Z,100029.63
2023-05-01T13:57:03.592Z,100030.50
2023-05-01T13:59:39.997Z,100018.91
2023-05-01T14:02:22.642Z,100028.81
2023-05-01T14:04:58.565Z,100022.72
2023-05-01T14:07:31.120Z,100023.81
2023-05-01T14:10:04.735Z,100018.44
2023-05-01T14:12:35.757Z,100010.06
2023-05-01T14:15:07.419Z,100011.34
2023-05-01T14:17:38.900Z,100017.81
2023-05-01T14:20:14.552Z,100017.22
2023-05-01T14:22:46.853Z,100017.19
2023-05-01T14:25:27.412Z,100006.81
2023-05-01T14:27:58.986Z,100007.56
2023-05-01T14:30:35.514Z,100007.97
2023-05-01T14:33:13.112Z,100005.47
2023-05-01T14:35:54.040Z,99997.06
2023-05-01T14:38:29.063Z,100000.81
2023-05-01T14:41:01.947Z,100003.34
2023-05-01T14:43:32.250Z,100002.44
2023-05-01T14:46:02.940Z,100003.03
2023-05-01T14:48:38.286Z,99969.44
2023-05-01T14:51:13.707Z,99996.78
2023-05-01T14:53:45.081Z,100000.19
2023-05-01T14:56:16.289Z,99994.56
2023-05-01T14:58:47.247Z,99991.03
2023-05-01T15:01:18.389Z,99990.72
2023-05-01T15:03:53.489Z,99991.78
2023-05-01T15:06:28.887Z,99987.91
2023-05-01T15:09:01.463Z,99991.66
2023-05-01T15:11:31.726Z,99978.88
2023-05-01T15:14:02.804Z,99972.41
2023-05-01T15:16:33.759Z,99983.31
2023-05-01T15:19:06.495Z,99974.72
2023-05-01T15:21:42.535Z,99977.84
2023-05-01T15:24:13.258Z,99984.94
2023-05-01T15:26:43.661Z,99980.69
2023-05-01T15:29:14.033Z,99973.44
2023-05-01T15:31:51.942Z,99981.06
2023-05-01T15:34:26.549Z,99973.88
2023-05-01T15:36:59.497Z,99971.94
2023-05-01T15:39:30.006Z,99970.75
2023-05-01T15:42:00.658Z,99963.63
2023-05-01T15:44:32.028Z,99970.03
2023-05-01T15:47:02.494Z,99970.16
2023-05-01T15:49:34.945Z,99968.50
2023-05-01T15:52:09.297Z,99959.81
2023-05-01T15:54:39.541Z,99960.34
2023-05-01T15:57:11.201Z,99960.34
2023-05-01T15:59:42.643Z,99964.44
2023-05-01T16:02:15.972Z,99960.94
2023-05-01T16:04:49.683Z,99959.19
2023-05-01T16:07:22.541Z,99959.50
2023-05-01T16:10:00.668Z,99959.75
2023-05-01T16:12:31.754Z,99960.78
2023-05-01T16:15:05.097Z,99963.84
2023-05-01T16:17:38.275Z,99959.03
2023-05-01T16:20:14.640Z,99957.09
2023-05-01T16:22:48.169Z,99956.72
2023-05-01T16:25:21.434Z,99959.13
2023-05-01T16:27:54.935Z,99957.63
2023-05-01T16:30:27.899Z,99945.88
2023-05-01T16:32:58.420Z,99959.41
2023-05-01T16:35:30.745Z,99960.25
2023-05-01T16:38:03.778Z,99963.84
2023-05-01T16:40:35.201Z,99960.84
2023-05-01T16:43:05.644Z,99964.44
2023-05-01T16:45:36.234Z,99965.56
2023-05-01T16:48:08.499Z,99964.66
2023-05-01T16:50:43.137Z,99963.09
2023-05-01T16:53:15.981Z,99965.19
2023-05-01T16:55:46.497Z,99973.53
2023-05-01T16:58:17.062Z,99970.63
2023-05-01T17:00:48.501Z,99973.50
2023-05-01T17:03:18.959Z,99969.16
2023-05-01T17:05:49.215Z,99969.09
2023-05-01T17:08:22.345Z,99965.84
2023-05-01T17:10:52.633Z,99966.13
2023-05-01T17:13:23.295Z,99959.72
2023-05-01T17:15:53.741Z,99952.81
2023-05-01T17:18:24.450Z,99952.91
2023-05-01T17:20:54.914Z,99954.84
2023-05-01T17:23:28.479Z,99957.41
2023-05-01T17:26:01.823Z,99956.13
2023-05-01T17:28:32.030Z,99952.53
2023-05-01T17:31:04.682Z,99948.25
2023-05-01T17:33:34.926Z,99951.63
2023-05-01T17:36:05.860Z,99954.81
2023-05-01T17:38:38.762Z,99959.66
2023-05-01T17:41:09.056Z,99950.47
2023-05-01T17:43:39.622Z,99954.28
2023-05-01T17:46:10.084Z,99946.13
2023-05-01T17:48:41.490Z,99948.41
2023-05-01T17:51:14.158Z,99941.38
2023-05-01T17:53:49.700Z,99953.50
2023-05-01T17:56:21.903Z,99946.03
2023-05-01T17:58:53.275Z,99952.47
2023-05-01T18:01:24.062Z,99954.72
2023-05-01T18:03:55.584Z,99950.66
2023-05-01T18:06:26.076Z,99953.75
2023-05-01T18:08:59.372Z,99950.66
2023-05-01T18:11:29.837Z,99961.81
2023-05-01T18:14:00.804Z,99957.72
2023-05-01T18:16:31.179Z,99954.63
2023-05-01T18:19:02.028Z,99953.56
2023-05-01T18:21:33.086Z,99947.19
2023-05-01T18:24:06.026Z,99940.00
2023-05-01T18:26:38.956Z,99912.50
2023-05-01T18:29:09.582Z,99921.03
2023-05-01T18:31:40.370Z,99945.81
2023-05-01T18:34:12.395Z,99944.63
2023-05-01T18:36:42.717Z,99945.22
2023-05-01T18:39:15.892Z,99946.50
2023-05-01T18:41:47.005Z,99952.25
2023-05-01T18:44:17.384Z,99959.22
2023-05-01T18:46:48.556Z,99961.19
2023-05-01T18:49:25.314Z,99963.00
2023-05-01T18:51:58.864Z,99965.13
2023-05-01T18:54:32.402Z,99963.25
2023-05-01T18:57:02.674Z,99961.47
2023-05-01T18:59:34.509Z,99960.47
2023-05-01T19:02:06.876Z,99965.16
2023-05-01T19:04:56.166Z,99965.34
2023-05-01T19:07:28.200Z,99974.31
2023-05-01T19:10:06.373Z,99979.22
2023-05-01T19:12:36.955Z,99983.97
2023-05-01T19:15:10.697Z,99983.00
2023-05-01T19:17:41.489Z,99983.97
2023-05-01T19:20:13.071Z,99989.84
2023-05-01T19:22:44.545Z,99980.91
2023-05-01T19:25:20.908Z,99992.47
2023-05-01T19:27:52.007Z,99982.69
2023-05-01T19:30:22.446Z,99988.13
2023-05-01T19:32:52.807Z,99988.28
2023-05-01T19:35:25.203Z,99987.72
2023-05-01T19:37:58.134Z,99982.72
2023-05-01T19:40:31.077Z,99986.63
2023-05-01T19:43:03.382Z,99979.22
2023-05-01T19:45:36.938Z,99979.69
2023-05-01T19:48:07.929Z,99983.59
2023-05-01T19:50:42.955Z,99973.97
2023-05-01T19:53:15.227Z,99975.66
2023-05-01T19:55:48.350Z,99976.34
2023-05-01T19:58:19.148Z,99977.75
2023-05-01T20:00:49.484Z,99985.00
2023-05-01T20:03:28.756Z,99988.63
2023-05-01T20:06:00.313Z,99985.59
2023-05-01T20:08:30.692Z,99988.91
2023-05-01T20:11:05.805Z,99979.31
2023-05-01T20:13:37.783Z,99978.91
2023-05-01T20:16:09.852Z,99975.13
2023-05-01T20:18:42.379Z,99971.09
2023-05-01T20:21:12.638Z,99980.00
2023-05-01T20:23:43.275Z,99982.38
2023-05-01T20:26:17.660Z,99982.00
2023-05-01T20:28:48.573Z,99985.06
2023-05-01T20:31:19.691Z,99982.69
2023-05-01T20:33:53.358Z,99980.03
2023-05-01T20:36:25.381Z,99980.44
2023-05-01T20:38:58.112Z,99977.22
2023-05-01T20:41:35.253Z,99983.91
2023-05-01T20:44:05.493Z,99985.84
2023-05-01T20:46:35.820Z,99991.41
2023-05-01T20:49:08.752Z,99989.75
2023-05-01T20:51:39.413Z,99998.66
2023-05-01T20:54:09.727Z,99992.66
2023-05-01T20:56:42.553Z,100000.03
2023-05-01T20:59:13.849Z,99999.47
2023-05-01T21:01:44.200Z,99998.78
2023-05-01T21:04:14.570Z,100004.34
2023-05-01T21:06:46.663Z,99998.50
2023-05-01T21:09:19.462Z,99996.97
2023-05-01T21:11:52.495Z,99992.25
2023-05-01T21:14:22.717Z,99998.06
2023-05-01T21:16:55.591Z,99991.38
2023-05-01T21:19:26.111Z,99990.81
2023-05-01T21:21:56.941Z,99977.41
2023-05-01T21:24:28.141Z,99999.28
2023-05-01T21:27:03.358Z,100002.31
2023-05-01T21:29:34.187Z,99996.63
2023-05-01T21:32:06.588Z,100000.38
2023-05-01T21:34:37.292Z,99996.31
2023-05-01T21:37:11.063Z,99994.91
2023-05-01T21:39:41.374Z,99994.06
2023-05-01T21:42:15.469Z,99994.06
2023-05-01T21:44:46.194Z,99987.09
2023-05-01T21:47:18.096Z,99991.78
2023-05-01T21:49:49.194Z,100002.63
2023-05-01T21:52:20.006Z,100000.38
2023-05-01T21:54:53.022Z,100007.75
2023-05-01T21:57:25.872Z,100011.09
2023-05-01T21:59:58.769Z,99999.34
2023-05-01T22:02:33.294Z,100003.94
2023-05-01T22:05:06.627Z,100005.34
2023-05-01T22:07:37.512Z,100001.75
2023-05-01T22:10:09.065Z,100003.69
2023-05-01T22:12:43.825Z,100005.34
2023-05-01T22:15:15.735Z,100001.41
2023-05-01T22:17:46.330Z,99990.38
2023-05-01T22:20:19.213Z,99997.59
2023-05-01T22:22:51.547Z,99991.34
2023-05-01T22:25:21.833Z,99994.09
2023-05-01T22:27:54.902Z,99998.09
2023-05-01T22:30:25.504Z,100002.28
2023-05-01T22:32:56.036Z,100011.53
2023-05-01T22:35:26.502Z,100006.09
2023-05-01T22:37:56.836Z,99999.72
2023-05-01T22:40:29.347Z,100007.13
2023-05-01T22:43:02.621Z,100001.00
2023-05-01T22:45:33.568Z,100004.50
2023-05-01T22:48:04.360Z,100011.72
2023-05-01T22:50:34.713Z,100004.75
2023-05-01T22:53:05.216Z,100008.22
2023-05-01T22:55:36.146Z,100005.97
2023-05-01T22:58:14.984Z,100002.63
2023-05-01T23:00:45.275Z,100011.53
2023-05-01T23:03:15.705Z,100000.50
2023-05-01T23:05:46.404Z,99997.00
2023-05-01T23:08:16.607Z,100000.50
2023-05-01T23:10:46.969Z,100004.50
2023-05-01T23:13:23.802Z,99995.75
2023-05-01T23:15:54.063Z,100001.53
2023-05-01T23:18:27.555Z,100003.22
2023-05-01T23:20:57.884Z,99996.53
2023-05-01T23:23:33.052Z,99999.03
2023-05-01T23:26:04.042Z,100004.91
2023-05-01T23:28:39.990Z,100000.97
2023-05-01T23:31:20.310Z,100006.34
2023-05-01T23:33:50.645Z,100006.59
2023-05-01T23:36:23.278Z,100003.13
2023-05-01T23:38:53.631Z,99995.19
2023-05-01T23:41:24.794Z,100000.59
2023-05-01T23:43:57.749Z,100004.22
2023-05-01T23:46:28.527Z,99996.66
2023-05-01T23:48:59.919Z,100002.28
2023-05-01T23:51:31.712Z,99995.19
2023-05-01T23:54:03.783Z,99983.31
2023-05-01T23:56:34.126Z,100002.41
2023-05-01T23:59:09.390Z,99998.09
